createdAt,value
2018-07-24T00:01:55.940Z,7.40
2018-07-24T00:04:24.200Z,6.95
2018-07-24T00:06:52.290Z,7.22
2018-07-24T00:09:20.421Z,7.70
2018-07-24T00:11:48.835Z,7.63
2018-07-24T00:14:16.970Z,7.80
2018-07-24T00:16:45.149Z,7.20
2018-07-24T00:19:13.270Z,7.50
2018-07-24T00:21:41.390Z,7.00
2018-07-24T00:24:09.599Z,8.60
2018-07-24T00:26:37.934Z,8.67
2018-07-24T00:29:06.166Z,7.50
2018-07-24T00:31:34.337Z,7.33
2018-07-24T00:34:02.442Z,7.17
2018-07-24T00:36:30.522Z,7.97
2018-07-24T00:38:58.581Z,7.83
2018-07-24T00:41:27.466Z,8.30
2018-07-24T00:43:55.592Z,9.83
2018-07-24T00:46:23.694Z,8.40
2018-07-24T00:48:51.804Z,7.60
2018-07-24T00:51:19.948Z,8.83
2018-07-24T00:53:48.150Z,8.67
2018-07-24T00:56:17.027Z,7.20
2018-07-24T00:58:45.147Z,7.33
2018-07-24T01:01:13.421Z,9.23
2018-07-24T01:03:41.593Z,7.97
2018-07-24T01:06:09.658Z,7.70
2018-07-24T01:08:37.762Z,8.50
2018-07-24T01:11:05.858Z,8.50
2018-07-24T01:13:34.371Z,7.12
2018-07-24T01:16:02.993Z,8.55
2018-07-24T01:18:31.159Z,8.03
2018-07-24T01:20:59.370Z,8.00
2018-07-24T01:23:27.480Z,7.15
2018-07-24T01:25:55.614Z,7.90
2018-07-24T01:28:23.829Z,8.47
2018-07-24T01:30:51.942Z,7.58
2018-07-24T01:33:20.091Z,7.63
2018-07-24T01:35:48.973Z,7.60
2018-07-24T01:38:17.279Z,9.00
2018-07-24T01:40:45.648Z,7.43
2018-07-24T01:43:13.906Z,7.00
2018-07-24T01:45:42.702Z,7.47
2018-07-24T01:48:11.104Z,7.93
2018-07-24T01:50:39.499Z,8.07
2018-07-24T01:53:07.874Z,7.60
2018-07-24T01:55:36.470Z,9.07
2018-07-24T01:58:04.764Z,8.10
2018-07-24T02:00:33.102Z,8.67
2018-07-24T02:03:01.260Z,8.00
2018-07-24T02:05:29.459Z,8.38
2018-07-24T02:07:57.795Z,8.50
2018-07-24T02:10:25.981Z,8.68
2018-07-24T02:12:54.185Z,7.83
2018-07-24T02:15:22.399Z,9.00
2018-07-24T02:17:50.565Z,8.43
2018-07-24T02:20:18.944Z,8.53
2018-07-24T02:22:48.531Z,7.85
2018-07-24T02:25:17.612Z,8.03
2018-07-24T02:27:45.925Z,8.47
2018-07-24T02:30:14.235Z,7.80
2018-07-24T02:32:42.392Z,8.50
2018-07-24T02:35:10.600Z,8.67
2018-07-24T02:37:38.728Z,8.43
2018-07-24T02:40:07.220Z,7.43
2018-07-24T02:42:35.426Z,9.20
2018-07-24T02:45:03.583Z,8.48
2018-07-24T02:47:31.694Z,8.77
2018-07-24T02:49:59.827Z,8.35
2018-07-24T02:52:27.921Z,8.83
2018-07-24T02:54:56.106Z,8.65
2018-07-24T02:57:24.332Z,8.97
2018-07-24T02:59:52.421Z,8.53
2018-07-24T03:02:20.615Z,8.87
2018-07-24T03:04:48.749Z,9.40
2018-07-24T03:07:17.628Z,8.43
2018-07-24T03:09:45.936Z,9.10
2018-07-24T03:12:14.116Z,8.77
2018-07-24T03:14:42.262Z,9.07
2018-07-24T03:17:10.382Z,8.63
2018-07-24T03:19:38.512Z,9.07
2018-07-24T03:22:06.699Z,9.40
2018-07-24T03:24:34.981Z,8.37
2018-07-24T03:27:03.107Z,9.13
2018-07-24T03:29:31.544Z,9.03
2018-07-24T03:31:59.676Z,9.05
2018-07-24T03:34:27.893Z,8.83
2018-07-24T03:36:56.211Z,9.03
2018-07-24T03:39:24.412Z,9.80
2018-07-24T03:41:52.816Z,9.00
2018-07-24T03:44:21.214Z,9.47
2018-07-24T03:46:49.431Z,8.93
2018-07-24T03:49:18.050Z,8.68
2018-07-24T03:51:46.336Z,9.43
2018-07-24T03:54:14.551Z,8.70
2018-07-24T03:56:42.680Z,9.23
2018-07-24T03:59:10.856Z,9.70
2018-07-24T04:01:39.028Z,9.90
2018-07-24T04:04:07.136Z,8.70
2018-07-24T04:06:35.312Z,9.70
2018-07-24T04:09:04.505Z,9.15
2018-07-24T04:11:32.769Z,9.83
2018-07-24T04:14:00.852Z,9.80
2018-07-24T04:16:28.992Z,9.45
2018-07-24T04:18:57.159Z,10.80
2018-07-24T04:21:25.278Z,10.17
2018-07-24T04:23:53.362Z,9.70
2018-07-24T04:26:21.567Z,10.17
2018-07-24T04:28:49.744Z,10.73
2018-07-24T04:31:18.226Z,10.15
2018-07-24T04:33:46.338Z,9.93
2018-07-24T04:36:14.484Z,12.83
2018-07-24T04:38:42.738Z,10.17
2018-07-24T04:41:10.834Z,9.80
2018-07-24T04:43:38.986Z,11.13
2018-07-24T04:46:07.108Z,10.20
2018-07-24T04:48:35.278Z,10.93
2018-07-24T04:51:03.455Z,9.50
2018-07-24T04:53:31.647Z,9.00
2018-07-24T04:56:00.255Z,9.70
2018-07-24T04:58:28.507Z,10.40
2018-07-24T05:00:56.622Z,9.70
2018-07-24T05:03:24.746Z,9.20
2018-07-24T05:05:52.865Z,9.97
2018-07-24T05:08:21.134Z,11.90
2018-07-24T05:10:49.239Z,8.97
2018-07-24T05:13:18.326Z,10.25
2018-07-24T05:15:46.426Z,10.60
2018-07-24T05:18:14.697Z,9.93
2018-07-24T05:20:42.875Z,10.60
2018-07-24T05:23:11.017Z,11.00
2018-07-24T05:25:39.167Z,10.85
2018-07-24T05:28:07.312Z,10.37
2018-07-24T05:30:35.611Z,10.98
2018-07-24T05:33:03.728Z,11.10
2018-07-24T05:35:31.928Z,11.40
2018-07-24T05:38:01.270Z,14.20
2018-07-24T05:40:29.523Z,11.20
2018-07-24T05:42:58.055Z,11.70
2018-07-24T05:45:26.845Z,11.95
2018-07-24T05:47:55.021Z,11.70
2018-07-24T05:50:23.230Z,10.70
2018-07-24T05:52:51.746Z,11.13
2018-07-24T05:55:19.834Z,12.73
2018-07-24T05:57:48.547Z,11.80
2018-07-24T06:00:16.664Z,10.90
2018-07-24T06:02:45.420Z,12.50
2018-07-24T06:05:13.557Z,12.00
2018-07-24T06:07:41.922Z,12.60
2018-07-24T06:10:10.094Z,11.17
2018-07-24T06:12:38.224Z,11.33
2018-07-24T06:15:06.929Z,11.90
2018-07-24T06:17:35.090Z,12.27
2018-07-24T06:20:03.241Z,11.80
2018-07-24T06:22:31.572Z,14.27
2018-07-24T06:24:59.736Z,11.65
2018-07-24T06:27:27.863Z,11.70
2018-07-24T06:29:56.043Z,11.57
2018-07-24T06:32:24.155Z,11.90
2018-07-24T06:34:52.328Z,15.30
2018-07-24T06:37:20.560Z,11.90
2018-07-24T06:39:48.714Z,13.67
2018-07-24T06:42:16.870Z,12.68
2018-07-24T06:44:45.098Z,12.37
2018-07-24T06:47:13.260Z,11.50
2018-07-24T06:49:41.552Z,11.90
2018-07-24T06:52:09.722Z,12.03
2018-07-24T06:54:38.351Z,11.93
2018-07-24T06:57:06.526Z,11.60
2018-07-24T06:59:34.635Z,12.93
2018-07-24T07:02:02.766Z,12.98
2018-07-24T07:04:30.999Z,12.70
2018-07-24T07:06:59.157Z,12.00
2018-07-24T07:09:27.390Z,12.10
2018-07-24T07:11:55.592Z,11.40
2018-07-24T07:14:24.714Z,11.83
2018-07-24T07:16:53.012Z,11.93
2018-07-24T07:19:21.672Z,10.70
2018-07-24T07:21:49.847Z,10.80
2018-07-24T07:24:19.053Z,11.17
2018-07-24T07:26:47.224Z,10.37
2018-07-24T07:29:15.533Z,10.83
2018-07-24T07:31:43.903Z,13.43
2018-07-24T07:34:12.150Z,12.23
2018-07-24T07:36:40.322Z,11.00
2018-07-24T07:39:10.193Z,9.87
2018-07-24T07:41:38.608Z,10.93
2018-07-24T07:44:06.790Z,10.00
2018-07-24T07:46:35.064Z,9.83
2018-07-24T07:49:03.341Z,9.57
2018-07-24T07:51:32.088Z,9.60
2018-07-24T07:54:00.629Z,10.40
2018-07-24T07:56:29.719Z,9.85
2018-07-24T07:58:57.892Z,9.80
2018-07-24T08:01:27.068Z,9.63
2018-07-24T08:03:55.237Z,9.03
2018-07-24T08:06:23.390Z,9.88
2018-07-24T08:08:51.487Z,8.33
2018-07-24T08:11:19.651Z,10.00
2018-07-24T08:13:47.808Z,9.77
2018-07-24T08:16:16.090Z,9.50
2018-07-24T08:18:44.292Z,8.63
2018-07-24T08:21:12.531Z,8.20
2018-07-24T08:23:40.808Z,7.87
2018-07-24T08:26:09.022Z,9.23
2018-07-24T08:28:37.186Z,8.50
2018-07-24T08:31:05.360Z,7.97
2018-07-24T08:33:33.549Z,7.33
2018-07-24T08:36:01.708Z,8.23
2018-07-24T08:38:30.535Z,8.73
2018-07-24T08:40:59.575Z,7.85
2018-07-24T08:43:27.962Z,7.40
2018-07-24T08:45:56.171Z,7.33
2018-07-24T08:48:24.574Z,7.85
2018-07-24T08:50:52.771Z,7.50
2018-07-24T08:53:21.043Z,6.43
2018-07-24T08:55:49.993Z,7.55
2018-07-24T08:58:20.638Z,7.10
2018-07-24T09:00:51.229Z,7.04
2018-07-24T09:03:19.633Z,7.87
2018-07-24T09:05:48.145Z,7.10
2018-07-24T09:08:16.559Z,6.90
2018-07-24T09:10:44.883Z,6.90
2018-07-24T09:13:13.124Z,7.27
2018-07-24T09:15:41.295Z,6.90
2018-07-24T09:18:09.439Z,7.37
2018-07-24T09:20:37.661Z,7.30
2018-07-24T09:23:05.867Z,6.83
2018-07-24T09:25:34.143Z,8.33
2018-07-24T09:28:02.319Z,6.53
2018-07-24T09:30:30.894Z,6.07
2018-07-24T09:32:59.059Z,6.67
2018-07-24T09:35:27.185Z,7.17
2018-07-24T09:37:55.407Z,5.93
2018-07-24T09:40:23.582Z,6.70
2018-07-24T09:42:51.751Z,6.33
2018-07-24T09:45:19.965Z,6.80
2018-07-24T09:47:49.150Z,5.40
2018-07-24T09:50:17.468Z,5.80
2018-07-24T09:52:45.709Z,6.10
2018-07-24T09:55:13.902Z,5.40
2018-07-24T09:57:42.056Z,5.33
2018-07-24T10:00:10.292Z,5.83
2018-07-24T10:02:38.892Z,5.53
2018-07-24T10:05:07.415Z,5.77
2018-07-24T10:07:35.772Z,5.85
2018-07-24T10:10:03.988Z,5.83
2018-07-24T10:12:32.273Z,5.37
2018-07-24T10:15:00.440Z,5.50
2018-07-24T10:17:28.579Z,5.35
2018-07-24T10:19:56.724Z,5.80
2018-07-24T10:22:24.873Z,5.30
2018-07-24T10:24:52.984Z,5.50
2018-07-24T10:27:21.116Z,5.07
2018-07-24T10:29:49.835Z,6.00
2018-07-24T10:32:17.919Z,5.63
2018-07-24T10:34:46.078Z,5.07
2018-07-24T10:37:14.185Z,5.50
2018-07-24T10:39:42.303Z,5.83
2018-07-24T10:42:10.460Z,5.63
2018-07-24T10:44:38.708Z,6.00
2018-07-24T10:47:06.778Z,4.90
2018-07-24T10:49:34.951Z,5.87
2018-07-24T10:52:03.373Z,5.90
2018-07-24T10:54:31.595Z,5.30
2018-07-24T10:56:59.726Z,5.13
2018-07-24T10:59:27.858Z,5.63
2018-07-24T11:01:55.957Z,5.30
2018-07-24T11:04:24.068Z,5.43
2018-07-24T11:06:52.202Z,5.10
2018-07-24T11:09:20.460Z,6.27
2018-07-24T11:11:48.742Z,5.20
2018-07-24T11:14:17.104Z,5.53
2018-07-24T11:16:45.234Z,5.90
2018-07-24T11:19:13.391Z,5.37
2018-07-24T11:21:41.599Z,5.43
2018-07-24T11:24:09.857Z,6.33
2018-07-24T11:26:38.221Z,5.57
2018-07-24T11:29:06.841Z,5.53
2018-07-24T11:31:34.982Z,5.27
2018-07-24T11:34:03.070Z,5.57
2018-07-24T11:36:31.373Z,5.60
2018-07-24T11:38:59.608Z,6.10
2018-07-24T11:41:28.345Z,5.77
2018-07-24T11:43:56.507Z,6.30
2018-07-24T11:46:24.647Z,5.37
2018-07-24T11:48:52.882Z,5.63
2018-07-24T11:51:21.087Z,5.20
2018-07-24T11:53:50.007Z,5.33
2018-07-24T11:56:18.171Z,5.60
2018-07-24T11:58:46.325Z,5.63
2018-07-24T12:01:14.443Z,5.37
2018-07-24T12:03:42.747Z,5.60
2018-07-24T12:06:12.514Z,5.23
2018-07-24T12:08:40.848Z,4.73
2018-07-24T12:11:09.470Z,4.93
2018-07-24T12:13:38.253Z,4.45
2018-07-24T12:16:06.611Z,4.83
2018-07-24T12:18:35.858Z,4.25
2018-07-24T12:21:04.139Z,4.60
2018-07-24T12:23:32.960Z,4.47
2018-07-24T12:26:02.993Z,4.25
2018-07-24T12:28:31.692Z,4.67
2018-07-24T12:31:00.194Z,4.37
2018-07-24T12:33:29.436Z,4.70
2018-07-24T12:35:57.815Z,4.13
2018-07-24T12:38:26.220Z,3.86
2018-07-24T12:40:54.883Z,3.80
2018-07-24T12:43:23.310Z,4.20
2018-07-24T12:45:51.498Z,3.80
2018-07-24T12:48:20.378Z,4.08
2018-07-24T12:50:48.824Z,4.03
2018-07-24T12:53:17.031Z,3.90
2018-07-24T12:55:45.166Z,3.50
2018-07-24T12:58:15.650Z,3.40
2018-07-24T13:00:43.854Z,3.65
2018-07-24T13:03:12.102Z,3.90
2018-07-24T13:05:40.217Z,4.58
2018-07-24T13:08:08.422Z,3.70
2018-07-24T13:10:37.336Z,3.92
2018-07-24T13:13:05.927Z,4.30
2018-07-24T13:15:34.082Z,3.98
2018-07-24T13:18:02.319Z,3.50
2018-07-24T13:20:30.426Z,3.20
2018-07-24T13:22:58.547Z,3.37
2018-07-24T13:25:26.683Z,3.83
2018-07-24T13:27:54.876Z,3.12
2018-07-24T13:30:24.319Z,3.45
2018-07-24T13:32:52.452Z,3.98
2018-07-24T13:35:20.631Z,3.98
2018-07-24T13:37:49.296Z,3.87
2018-07-24T13:40:17.574Z,3.85
2018-07-24T13:42:46.118Z,3.87
2018-07-24T13:45:14.345Z,3.98
2018-07-24T13:47:43.134Z,3.67
2018-07-24T13:50:11.412Z,3.50
2018-07-24T13:52:39.595Z,3.83
2018-07-24T13:55:08.056Z,3.60
2018-07-24T13:57:36.319Z,3.58
2018-07-24T14:00:05.952Z,3.33
2018-07-24T14:02:34.169Z,3.43
2018-07-24T14:05:02.359Z,3.65
2018-07-24T14:07:30.708Z,3.40
2018-07-24T14:09:59.019Z,3.30
2018-07-24T14:12:27.208Z,3.58
2018-07-24T14:14:55.359Z,3.14
2018-07-24T14:17:23.539Z,3.22
2018-07-24T14:19:51.642Z,3.45
2018-07-24T14:31:42.318Z,3.80
2018-07-24T14:34:10.512Z,3.50
2018-07-24T14:36:38.746Z,3.72
2018-07-24T14:39:09.372Z,3.70
2018-07-24T14:41:37.626Z,3.50
2018-07-24T14:44:05.905Z,3.55
2018-07-24T14:46:34.278Z,3.53
2018-07-24T14:49:02.368Z,3.30
2018-07-24T14:51:30.502Z,3.22
2018-07-24T14:53:58.632Z,3.63
2018-07-24T14:56:26.748Z,3.74
2018-07-24T14:58:54.843Z,3.45
2018-07-24T15:01:23.164Z,3.60
2018-07-24T15:03:51.311Z,3.60
2018-07-24T15:06:19.399Z,3.47
2018-07-24T15:08:47.518Z,3.30
2018-07-24T15:11:15.672Z,3.52
2018-07-24T15:13:44.035Z,3.80
2018-07-24T15:16:12.352Z,3.15
2018-07-24T15:31:40.719Z,3.33
2018-07-24T15:34:09.000Z,3.45
2018-07-24T15:36:37.336Z,3.57
2018-07-24T15:39:08.398Z,3.27
2018-07-24T15:41:36.894Z,3.45
2018-07-24T15:44:05.499Z,4.07
2018-07-24T15:46:33.756Z,3.77
2018-07-24T15:49:01.979Z,3.70
2018-07-24T15:51:30.235Z,3.58
2018-07-24T15:53:58.426Z,3.80
2018-07-24T15:56:26.624Z,3.30
2018-07-24T15:58:54.782Z,3.60
2018-07-24T16:01:29.316Z,3.55
2018-07-24T16:03:57.483Z,3.62
2018-07-24T16:06:25.611Z,3.83
2018-07-24T16:08:54.153Z,3.30
2018-07-24T16:11:22.358Z,4.00
2018-07-24T16:13:51.202Z,3.75
2018-07-24T16:16:19.529Z,3.72
2018-07-24T16:18:47.772Z,3.30
2018-07-24T16:21:16.411Z,4.08
2018-07-24T16:23:44.806Z,3.58
2018-07-24T16:26:13.338Z,4.35
2018-07-24T16:28:41.743Z,3.85
2018-07-24T16:31:10.334Z,4.10
2018-07-24T16:33:38.735Z,4.05
2018-07-24T16:36:07.068Z,4.20
2018-07-24T16:38:35.302Z,4.00
2018-07-24T16:41:03.587Z,4.40
2018-07-24T16:43:31.930Z,4.40
2018-07-24T16:46:00.838Z,4.10
2018-07-24T16:48:29.138Z,4.70
2018-07-24T16:50:57.315Z,4.30
2018-07-24T16:53:25.700Z,4.03
2018-07-24T16:55:54.036Z,4.43
2018-07-24T16:58:22.292Z,4.30
2018-07-24T17:01:45.420Z,3.90
2018-07-24T17:04:13.704Z,4.87
2018-07-24T17:06:42.386Z,5.10
2018-07-24T17:09:11.847Z,4.43
2018-07-24T17:11:40.586Z,4.70
2018-07-24T17:14:09.012Z,4.93
2018-07-24T17:16:37.543Z,4.20
2018-07-24T17:19:05.789Z,5.80
2018-07-24T17:21:33.959Z,4.60
2018-07-24T17:24:02.273Z,5.58
2018-07-24T17:26:37.351Z,4.80
2018-07-24T17:29:05.847Z,5.22
2018-07-24T17:31:34.983Z,5.40
2018-07-24T17:34:03.326Z,4.83
2018-07-24T17:36:31.482Z,5.10
2018-07-24T17:38:59.736Z,6.10
2018-07-24T17:41:27.883Z,4.97
2018-07-24T17:43:56.254Z,5.33
2018-07-24T17:46:24.535Z,5.17
2018-07-24T17:48:52.837Z,5.30
2018-07-24T17:51:22.709Z,4.60
2018-07-24T17:53:51.070Z,5.43
2018-07-24T17:56:19.175Z,5.30
2018-07-24T17:58:47.287Z,5.37
2018-07-24T18:01:15.525Z,4.80
2018-07-24T18:03:43.690Z,10.53
2018-07-24T18:06:11.833Z,5.17
2018-07-24T18:08:40.021Z,4.83
2018-07-24T18:11:08.149Z,5.20
2018-07-24T18:13:36.305Z,4.53
2018-07-24T18:16:04.654Z,5.07
2018-07-24T18:18:33.832Z,4.90
2018-07-24T18:21:01.933Z,4.70
2018-07-24T18:23:30.331Z,5.17
2018-07-24T18:25:58.428Z,5.30
2018-07-24T18:28:26.686Z,6.03
2018-07-24T18:30:55.757Z,5.30
2018-07-24T18:33:24.273Z,5.60
2018-07-24T18:35:52.341Z,5.00
2018-07-24T18:38:20.505Z,6.10
2018-07-24T18:40:48.669Z,6.07
2018-07-24T18:43:16.955Z,6.77
2018-07-24T18:45:45.186Z,7.00
2018-07-24T18:48:13.727Z,7.67
2018-07-24T18:50:42.362Z,6.57
2018-07-24T18:53:10.595Z,6.83
2018-07-24T18:55:39.283Z,7.22
2018-07-24T18:58:07.444Z,6.53
2018-07-24T19:00:35.657Z,7.17
2018-07-24T19:03:03.905Z,7.33
2018-07-24T19:05:32.300Z,8.68
2018-07-24T19:08:00.513Z,6.47
2018-07-24T19:10:28.966Z,7.90
2018-07-24T19:12:57.109Z,7.90
2018-07-24T19:15:25.414Z,7.70
2018-07-24T19:17:54.235Z,8.03
2018-07-24T19:20:22.386Z,8.80
2018-07-24T19:22:50.658Z,8.60
2018-07-24T19:25:20.032Z,9.13
2018-07-24T19:27:48.301Z,9.03
2018-07-24T19:30:16.601Z,8.53
2018-07-24T19:32:44.830Z,9.20
2018-07-24T19:35:13.103Z,7.90
2018-07-24T19:37:41.512Z,10.03
2018-07-24T19:40:10.305Z,19.35
2018-07-24T19:42:38.701Z,7.50
2018-07-24T19:45:07.293Z,7.97
2018-07-24T19:47:35.635Z,8.90
2018-07-24T19:50:04.042Z,7.93
2018-07-24T19:52:32.261Z,8.40
2018-07-24T19:55:00.643Z,7.37
2018-07-24T19:57:28.815Z,7.70
2018-07-24T19:59:56.926Z,7.20
2018-07-24T20:02:25.060Z,7.73
2018-07-24T20:04:53.424Z,7.73
2018-07-24T20:07:22.782Z,6.97
2018-07-24T20:09:51.648Z,7.13
2018-07-24T20:12:20.718Z,6.70
2018-07-24T20:14:49.101Z,6.70
2018-07-24T20:17:17.527Z,6.70
2018-07-24T20:19:45.777Z,7.40
2018-07-24T20:22:13.942Z,6.63
2018-07-24T20:24:43.124Z,6.93
2018-07-24T20:27:11.556Z,8.33
2018-07-24T20:29:39.831Z,8.23
2018-07-24T20:32:08.110Z,6.90
2018-07-24T20:34:36.411Z,6.85
2018-07-24T20:37:04.666Z,6.87
2018-07-24T20:39:33.062Z,6.22
2018-07-24T20:42:01.474Z,7.80
2018-07-24T20:44:29.952Z,8.40
2018-07-24T20:46:58.138Z,7.35
2018-07-24T20:49:26.370Z,8.20
2018-07-24T20:51:54.987Z,6.97
2018-07-24T20:54:23.394Z,6.90
2018-07-24T21:01:41.876Z,7.30
2018-07-24T21:04:10.019Z,9.20
2018-07-24T21:06:38.128Z,7.37
2018-07-24T21:09:08.514Z,7.10
2018-07-24T21:11:37.557Z,7.93
2018-07-24T21:14:05.887Z,7.17
2018-07-24T21:16:35.595Z,6.95
2018-07-24T21:19:03.796Z,7.07
2018-07-24T21:21:32.160Z,7.15
2018-07-24T21:24:00.995Z,6.62
2018-07-24T21:26:30.730Z,8.00
2018-07-24T21:28:58.987Z,8.73
2018-07-24T21:31:27.098Z,6.72
2018-07-24T21:33:55.226Z,7.47
2018-07-24T21:36:23.459Z,6.90
2018-07-24T21:38:52.546Z,7.33
2018-07-24T21:41:20.793Z,6.83
2018-07-24T21:43:48.899Z,7.00
2018-07-24T21:46:17.068Z,7.70
2018-07-24T21:48:45.193Z,6.93
2018-07-24T21:51:13.356Z,7.23
2018-07-24T21:53:41.730Z,9.50
2018-07-24T21:56:09.882Z,7.50
2018-07-24T21:58:38.156Z,8.33
2018-07-24T22:01:11.655Z,6.95
2018-07-24T22:03:39.818Z,7.20
2018-07-24T22:06:08.393Z,6.78
2018-07-24T22:08:36.733Z,8.30
2018-07-24T22:11:04.917Z,8.23
2018-07-24T22:13:33.138Z,8.07
2018-07-24T22:16:01.232Z,6.67
2018-07-24T22:18:29.456Z,7.15
2018-07-24T22:20:57.609Z,6.80
2018-07-24T22:23:25.803Z,7.07
2018-07-24T22:25:53.951Z,7.97
2018-07-24T22:28:23.191Z,7.20
2018-07-24T22:30:51.357Z,6.40
2018-07-24T22:33:19.662Z,6.57
2018-07-24T22:35:47.844Z,6.50
2018-07-24T22:38:15.958Z,6.60
2018-07-24T22:40:44.129Z,6.30
2018-07-24T22:45:46.753Z,7.07
2018-07-24T22:48:15.077Z,6.33
2018-07-24T22:50:43.350Z,6.60
2018-07-24T22:53:12.156Z,7.67
2018-07-24T22:55:40.368Z,6.83
2018-07-24T22:58:08.511Z,7.08
2018-07-24T23:00:36.820Z,6.62
2018-07-24T23:03:05.578Z,7.97
2018-07-24T23:05:33.919Z,7.70
2018-07-24T23:08:02.114Z,7.97
2018-07-24T23:10:32.730Z,7.23
2018-07-24T23:13:02.129Z,7.40
2018-07-24T23:15:30.304Z,7.80
2018-07-24T23:17:58.444Z,7.40
2018-07-24T23:20:27.230Z,7.33
2018-07-24T23:22:55.351Z,6.60
2018-07-24T23:25:24.073Z,6.30
2018-07-24T23:27:54.708Z,6.84
2018-07-24T23:30:23.495Z,7.07
2018-07-24T23:32:51.663Z,7.93
2018-07-24T23:35:19.870Z,7.33
2018-07-24T23:37:48.538Z,7.37
2018-07-24T23:40:16.700Z,7.47
2018-07-24T23:42:44.820Z,7.30
2018-07-24T23:45:12.968Z,8.17
2018-07-24T23:47:41.217Z,7.53
2018-07-24T23:50:09.321Z,7.90
2018-07-24T23:52:37.494Z,7.33
2018-07-24T23:55:05.690Z,8.00
2018-07-24T23:57:34.046Z,7.10
